Amagansett, New York
Current Conditions -  °F | °C
As of 8:56 PM on Thursday 20 Nov 2014 (Local Time) from KGON Reporting Station
Clear Clear  
Wind Chill: -1°   Ceiling: Unl
Heat Index:   Visibility: 8mi
Dew Point: -8°   Wind: 7mph
Humidity: 48%   Direction: 300°WNW
Pressure: 29.9"   Gusts: NA
Location:  40.97°N, 72.14°W
Report Text: KGON 210156Z 30006KT 8SM CLR 02/M08 A2990 RMK AO2 SLP126 T00221078
Loading
Personal Weather Stations






























Interactive Weather Map New forecast layout! Learn more

10-Day Weather Forecast

Advertisements
Track Severe Weather on mobile